Time;durP1;ratioP1;P1;durP2;ratioP2;P2;SDS_P1;SDS_P2;PMS_P1;PMS_P2;Temp;Humidity;BMP_temperature;BMP_pressure;BME280_temperature;BME280_humidity;BME280_pressure;Samples;Min_cycle;Max_cycle;Signal;HPM_P1;HPM_P2
2021/12/12 00:00:50;;;;;;;13.83;9.40;;;;;;;8.98;100.00;93029.31;5034281;28;20230;-63
2021/12/12 00:03:31;;;;;;;11.17;9.03;;;;;;;8.73;100.00;93008.25;5034559;28;20269;-62
2021/12/12 00:05:57;;;;;;;10.27;7.73;;;;;;;8.93;100.00;93032.31;5033803;28;20668;-63
2021/12/12 00:08:24;;;;;;;9.93;7.00;;;;;;;8.51;100.00;93043.53;5032695;28;20209;-63
2021/12/12 00:10:55;;;;;;;6.60;5.63;;;;;;;7.87;100.00;93080.41;5027508;23;20229;-65
2021/12/12 00:13:27;;;;;;;7.40;4.83;;;;;;;7.77;100.00;93096.63;5014171;28;20182;-63
2021/12/12 00:15:52;;;;;;;8.93;6.80;;;;;;;7.68;100.00;93100.03;5014116;28;20719;-61
2021/12/12 00:18:18;;;;;;;12.57;7.80;;;;;;;7.57;100.00;93101.88;5014219;28;20207;-62
2021/12/12 00:20:47;;;;;;;17.90;10.70;;;;;;;7.43;100.00;93089.81;5014489;28;20223;-62
2021/12/12 00:23:12;;;;;;;14.97;10.83;;;;;;;7.32;100.00;93086.75;5011134;28;20652;-63
2021/12/12 00:25:43;;;;;;;18.37;11.83;;;;;;;7.73;100.00;93113.03;5013586;28;20285;-63
2021/12/12 00:28:10;;;;;;;19.33;11.33;;;;;;;7.69;100.00;93084.75;5013987;28;20629;-63
2021/12/12 00:30:36;;;;;;;18.53;12.83;;;;;;;7.69;100.00;93097.38;5012703;28;20203;-60
2021/12/12 00:33:03;;;;;;;13.77;10.10;;;;;;;7.79;100.00;93123.34;5013669;28;20237;-62
2021/12/12 00:35:29;;;;;;;19.20;11.30;;;;;;;7.79;100.00;93120.03;5012036;28;20672;-62
2021/12/12 00:38:01;;;;;;;12.33;8.87;;;;;;;7.73;100.00;93128.22;5013089;28;20539;-61
2021/12/12 00:40:49;;;;;;;13.27;9.57;;;;;;;7.45;100.00;93125.06;5014404;28;20206;-63
2021/12/12 00:43:34;;;;;;;12.37;8.13;;;;;;;7.48;100.00;93124.75;5013660;28;20586;-62
2021/12/12 00:46:04;;;;;;;7.73;4.90;;;;;;;7.71;100.00;93112.41;5014351;28;20225;-62
2021/12/12 00:48:31;;;;;;;5.20;4.57;;;;;;;7.88;100.00;93141.91;5012325;28;20563;-59
2021/12/12 00:50:59;;;;;;;8.63;4.70;;;;;;;7.89;100.00;93154.38;5020860;23;20268;-62
2021/12/12 00:53:26;;;;;;;8.03;5.17;;;;;;;8.03;100.00;93126.00;5013325;28;20276;-60
2021/12/12 00:55:54;;;;;;;4.80;4.20;;;;;;;7.99;100.00;93132.31;5013784;28;20248;-59
2021/12/12 00:58:21;;;;;;;5.90;3.93;;;;;;;7.95;100.00;93153.78;5013244;28;20186;-63
2021/12/12 01:01:00;;;;;;;5.97;3.70;;;;;;;8.15;100.00;93152.59;5011777;28;20207;-63
2021/12/12 01:03:31;;;;;;;5.67;3.70;;;;;;;8.32;100.00;93166.16;5012189;28;20174;-63
2021/12/12 01:05:59;;;;;;;4.40;3.40;;;;;;;8.01;100.00;93173.44;5033611;22;20321;-62
2021/12/12 01:08:27;;;;;;;6.10;4.10;;;;;;;7.73;100.00;93174.53;5032972;28;20178;-62
2021/12/12 01:11:03;;;;;;;6.13;3.83;;;;;;;8.08;100.00;93189.56;5040251;22;20225;-63
2021/12/12 01:13:29;;;;;;;7.13;4.17;;;;;;;7.91;100.00;93187.13;5032848;28;20252;-59
2021/12/12 01:16:04;;;;;;;4.53;3.50;;;;;;;7.79;100.00;93163.03;5047440;22;20279;-62
2021/12/12 01:18:34;;;;;;;4.63;3.60;;;;;;;7.96;100.00;93178.13;5033028;28;20175;-60
2021/12/12 01:21:12;;;;;;;5.50;4.00;;;;;;;8.08;100.00;93183.75;5033016;28;20198;-62
2021/12/12 01:23:44;;;;;;;7.10;5.10;;;;;;;8.15;100.00;93174.59;5032840;28;20679;-62
2021/12/12 01:26:10;;;;;;;8.63;5.43;;;;;;;7.96;100.00;93165.47;5032875;28;20253;-60
2021/12/12 01:28:39;;;;;;;8.33;5.50;;;;;;;7.75;100.00;93181.97;5031057;28;20170;-60
2021/12/12 01:31:08;;;;;;;8.17;5.73;;;;;;;7.18;100.00;93175.72;5031624;28;20206;-60
2021/12/12 01:33:36;;;;;;;7.10;5.23;;;;;;;7.25;100.00;93162.34;5031384;28;20174;-63
2021/12/12 01:36:22;;;;;;;9.40;6.20;;;;;;;7.29;100.00;93145.19;5032977;28;20230;-59
2021/12/12 01:38:53;;;;;;;8.10;5.90;;;;;;;7.60;100.00;93131.16;5032454;28;20170;-64
2021/12/12 01:41:33;;;;;;;10.87;5.93;;;;;;;7.83;100.00;93156.72;5032839;28;20209;-61
2021/12/12 01:44:03;;;;;;;8.10;4.67;;;;;;;7.70;100.00;93169.75;5032178;28;20171;-60
2021/12/12 01:46:35;;;;;;;5.97;4.10;;;;;;;7.60;100.00;93174.13;5032299;28;20194;-62
2021/12/12 01:49:08;;;;;;;5.40;3.70;;;;;;;7.61;100.00;93163.84;5031978;28;20173;-59
2021/12/12 01:51:34;;;;;;;4.20;2.87;;;;;;;7.61;100.00;93196.72;5032166;28;20682;-60
2021/12/12 01:54:02;;;;;;;3.73;3.17;;;;;;;7.43;100.00;93217.94;5032127;28;20212;-61
2021/12/12 01:56:34;;;;;;;4.50;3.07;;;;;;;7.37;100.00;93221.06;5030722;28;20194;-64
2021/12/12 01:59:05;;;;;;;6.30;3.30;;;;;;;7.27;100.00;93197.59;5025456;23;20316;-64
2021/12/12 02:01:36;;;;;;;4.67;3.60;;;;;;;7.59;100.00;93200.38;5012290;28;20202;-60
2021/12/12 02:04:12;;;;;;;4.73;3.33;;;;;;;7.56;100.00;93225.94;5012810;28;20197;-63
2021/12/12 02:06:39;;;;;;;2.90;2.47;;;;;;;7.55;100.00;93214.25;5012142;28;20173;-63
2021/12/12 02:09:07;;;;;;;3.70;2.30;;;;;;;7.38;100.00;93185.53;5012800;28;20195;-60
2021/12/12 02:11:35;;;;;;;3.43;2.60;;;;;;;7.11;100.00;93182.31;5012174;28;20253;-59
2021/12/12 02:14:09;;;;;;;4.07;2.43;;;;;;;7.23;100.00;93196.31;5012667;28;20570;-61
2021/12/12 02:16:39;;;;;;;4.30;2.40;;;;;;;6.98;100.00;93207.13;5011124;28;20181;-61
2021/12/12 02:19:06;;;;;;;4.20;2.23;;;;;;;7.20;100.00;93222.66;5012746;28;20193;-63
2021/12/12 02:21:58;;;;;;;5.37;3.93;;;;;;;6.93;100.00;93230.28;5012293;28;20199;-60
2021/12/12 02:35:46;;;;;;;5.20;3.33;;;;;;;7.12;100.00;93224.31;5011836;28;20208;-60
2021/12/12 02:38:23;;;;;;;5.47;3.33;;;;;;;7.04;100.00;93240.19;5012463;28;20637;-62
2021/12/12 02:41:01;;;;;;;3.37;2.70;;;;;;;7.01;100.00;93248.03;5042907;22;20676;-60
2021/12/12 02:43:34;;;;;;;4.50;3.30;;;;;;;7.29;100.00;93236.94;5031526;28;20190;-59
2021/12/12 02:46:00;;;;;;;4.37;3.30;;;;;;;7.07;100.00;93236.59;5031770;28;20597;-60
2021/12/12 02:48:35;;;;;;;2.70;2.10;;;;;;;7.21;100.00;93274.75;5031732;28;20545;-63
2021/12/12 02:51:06;;;;;;;3.73;2.93;;;;;;;6.96;100.00;93269.63;5031327;28;20244;-62
2021/12/12 02:53:39;;;;;;;3.97;3.10;;;;;;;6.75;100.00;93237.06;5031522;28;20181;-62
2021/12/12 02:56:18;;;;;;;3.43;3.10;;;;;;;6.28;100.00;93241.41;5031600;28;20283;-65
2021/12/12 02:58:45;;;;;;;4.20;3.80;;;;;;;6.34;100.00;93261.03;5029362;28;20180;-60
2021/12/12 03:01:17;;;;;;;6.90;4.00;;;;;;;6.65;100.00;93274.97;5033460;28;20703;-63
2021/12/12 03:03:44;;;;;;;4.27;3.47;;;;;;;6.71;100.00;93278.66;5035066;28;20195;-61
2021/12/12 03:06:14;;;;;;;4.20;3.63;;;;;;;6.83;100.00;93254.03;5035190;28;20259;-63
2021/12/12 03:08:42;;;;;;;4.33;3.93;;;;;;;6.59;100.00;93279.78;5034912;28;20181;-60
2021/12/12 03:11:08;;;;;;;3.43;2.90;;;;;;;6.30;100.00;93264.00;5035148;28;20205;-62
2021/12/12 03:13:35;;;;;;;3.97;3.10;;;;;;;6.78;100.00;93269.59;5034948;28;20201;-60
2021/12/12 03:16:01;;;;;;;3.60;3.30;;;;;;;6.91;100.00;93304.63;5035243;28;20209;-63
2021/12/12 03:18:31;;;;;;;3.83;3.23;;;;;;;7.00;100.00;93288.63;5022393;22;20230;-59
2021/12/12 03:21:01;;;;;;;3.67;3.00;;;;;;;6.99;100.00;93289.56;5022221;23;20296;-63
2021/12/12 03:23:34;;;;;;;5.00;3.17;;;;;;;6.88;100.00;93305.72;5015162;28;20174;-61
2021/12/12 03:26:04;;;;;;;4.03;2.73;;;;;;;7.08;100.00;93299.59;5015440;28;20237;-61
2021/12/12 03:28:34;;;;;;;4.83;2.80;;;;;;;6.89;100.00;93321.66;5014929;28;20250;-61
2021/12/12 03:31:06;;;;;;;2.03;1.93;;;;;;;6.74;100.00;93329.69;5015462;28;20214;-60
2021/12/12 03:33:32;;;;;;;2.40;1.90;;;;;;;6.53;100.00;93339.19;5014855;28;20189;-63
2021/12/12 03:36:01;;;;;;;3.13;2.03;;;;;;;6.82;100.00;93340.81;5015108;28;20624;-63
2021/12/12 03:38:28;;;;;;;4.47;2.30;;;;;;;6.54;100.00;93340.00;5013125;28;20656;-59
2021/12/12 03:40:58;;;;;;;1.50;1.40;;;;;;;6.14;100.00;93336.94;5013218;28;20209;-63
2021/12/12 03:43:24;;;;;;;2.70;1.10;;;;;;;6.54;100.00;93350.09;5014804;28;20185;-60
2021/12/12 03:45:50;;;;;;;1.00;1.00;;;;;;;6.63;100.00;93371.97;5014878;28;20226;-60
2021/12/12 03:48:27;;;;;;;1.50;0.90;;;;;;;6.56;100.00;93346.53;5014546;28;20194;-62
2021/12/12 03:50:56;;;;;;;1.17;1.07;;;;;;;6.59;100.00;93366.41;5038167;22;20232;-60
2021/12/12 03:53:22;;;;;;;1.20;1.10;;;;;;;6.59;100.00;93381.56;5034344;28;20282;-60
2021/12/12 03:55:50;;;;;;;1.30;1.07;;;;;;;6.53;100.00;93351.81;5034063;28;20602;-62
2021/12/12 03:58:15;;;;;;;0.83;0.83;;;;;;;6.63;100.00;93357.63;5034184;28;20188;-62
2021/12/12 04:01:02;;;;;;;0.80;0.70;;;;;;;6.51;100.00;93391.56;5041436;22;20243;-60
2021/12/12 04:03:27;;;;;;;0.60;0.60;;;;;;;6.45;100.00;93393.81;5032715;28;20275;-63
2021/12/12 04:05:58;;;;;;;1.23;0.80;;;;;;;6.30;100.00;93373.25;5041235;22;20310;-61
2021/12/12 04:08:36;;;;;;;0.80;0.80;;;;;;;6.45;100.00;93398.88;5034301;28;20176;-60
2021/12/12 04:11:04;;;;;;;2.30;0.90;;;;;;;6.34;100.00;93399.81;5033526;28;20275;-64
2021/12/12 04:13:29;;;;;;;1.30;1.20;;;;;;;6.06;100.00;93398.13;5033912;28;20187;-62
2021/12/12 04:15:56;;;;;;;1.30;0.83;;;;;;;6.30;100.00;93393.44;5034126;28;20280;-60
2021/12/12 04:18:40;;;;;;;2.00;0.70;;;;;;;6.10;100.00;93393.63;5033984;28;20216;-61
2021/12/12 04:21:06;;;;;;;2.30;1.00;;;;;;;6.36;100.00;93399.69;5033674;28;20605;-63
2021/12/12 04:23:32;;;;;;;1.10;0.77;;;;;;;6.35;100.00;93416.56;5032339;28;20181;-61
2021/12/12 04:26:25;;;;;;;0.97;0.87;;;;;;;5.65;100.00;93424.38;5041017;22;20318;-62
2021/12/12 04:31:51;;;;;;;0.80;0.80;;;;;;;5.50;100.00;93399.66;5040897;22;20228;-63
2021/12/12 04:34:23;;;;;;;1.17;1.07;;;;;;;5.59;100.00;93426.63;5033399;28;20265;-61
2021/12/12 04:36:50;;;;;;;1.47;0.90;;;;;;;5.71;100.00;93450.78;5041001;22;20232;-61
2021/12/12 04:39:25;;;;;;;1.37;0.97;;;;;;;5.71;100.00;93476.00;5032206;28;20263;-64
2021/12/12 04:41:56;;;;;;;1.00;0.80;;;;;;;5.38;100.00;93461.19;5033764;28;20177;-61
2021/12/12 04:44:29;;;;;;;0.87;0.83;;;;;;;5.13;100.00;93450.63;5033480;28;20250;-60
2021/12/12 04:50:36;;;;;;;1.33;1.00;;;;;;;5.43;100.00;93472.50;5033562;28;20265;-61
2021/12/12 04:53:37;;;;;;;0.93;0.73;;;;;;;5.65;100.00;93471.47;5030312;28;20200;-60
2021/12/12 04:56:15;;;;;;;3.40;1.60;;;;;;;5.22;100.00;93483.53;4986623;28;20224;-61
2021/12/12 04:58:44;;;;;;;3.03;1.93;;;;;;;4.70;100.00;93456.81;5031629;28;20175;-63
2021/12/12 05:01:20;;;;;;;1.53;0.90;;;;;;;5.11;100.00;93461.75;5030175;28;20210;-62
2021/12/12 05:04:00;;;;;;;0.83;0.80;;;;;;;5.31;100.00;93485.31;5031780;28;20210;-64
2021/12/12 05:06:42;;;;;;;0.90;0.90;;;;;;;5.64;100.00;93518.56;5033250;28;20208;-63
2021/12/12 05:09:20;;;;;;;1.10;1.00;;;;;;;5.50;100.00;93534.03;5032978;28;20167;-63
2021/12/12 05:11:54;;;;;;;1.03;0.90;;;;;;;5.49;100.00;93526.59;5032990;28;20163;-63
2021/12/12 05:14:29;;;;;;;1.57;1.43;;;;;;;5.26;100.00;93520.94;5033105;28;20186;-62
2021/12/12 05:17:17;;;;;;;4.87;1.10;;;;;;;4.78;100.00;93497.25;5033064;28;20180;-63
2021/12/12 05:19:49;;;;;;;0.80;0.63;;;;;;;5.22;100.00;93531.38;5032871;28;20211;-63
2021/12/12 05:22:19;;;;;;;6.63;3.63;;;;;;;5.06;100.00;93535.19;5039937;22;20239;-62
2021/12/12 05:24:48;;;;;;;5.50;3.60;;;;;;;5.13;100.00;93532.16;5032861;28;20735;-63
2021/12/12 05:27:18;;;;;;;1.50;1.13;;;;;;;4.94;100.00;93561.34;5033076;28;20262;-62
2021/12/12 05:30:06;;;;;;;2.23;1.37;;;;;;;5.06;100.00;93529.34;5032564;28;20255;-63
2021/12/12 05:32:34;;;;;;;1.27;1.10;;;;;;;4.88;100.00;93544.22;5031101;28;20195;-61
2021/12/12 05:35:01;;;;;;;0.93;0.80;;;;;;;5.03;100.00;93575.69;5032507;28;20206;-63
2021/12/12 05:37:27;;;;;;;0.80;0.80;;;;;;;4.98;100.00;93552.63;5030302;28;20631;-59
2021/12/12 05:39:53;;;;;;;1.87;0.70;;;;;;;5.15;100.00;93548.75;5029644;28;20235;-64
2021/12/12 05:42:20;;;;;;;1.00;0.80;;;;;;;5.05;100.00;93594.00;5031104;28;20193;-63
2021/12/12 05:44:46;;;;;;;1.03;0.90;;;;;;;4.50;100.00;93588.44;5030799;28;20616;-61
2021/12/12 05:47:12;;;;;;;1.03;0.80;;;;;;;4.78;100.00;93593.72;5031362;28;20195;-60
2021/12/12 05:49:40;;;;;;;0.50;0.50;;;;;;;4.88;100.00;93622.25;5032257;28;20208;-62
2021/12/12 05:52:10;;;;;;;0.80;0.50;;;;;;;4.85;100.00;93645.16;5032808;28;20198;-62
2021/12/12 05:54:36;;;;;;;1.27;0.63;;;;;;;4.61;100.00;93636.19;5031128;28;20723;-63
2021/12/12 05:57:03;;;;;;;0.63;0.53;;;;;;;4.46;100.00;93632.38;5032345;28;20183;-63
2021/12/12 05:59:29;;;;;;;1.00;0.70;;;;;;;4.47;100.00;93632.25;5032437;28;20182;-60
2021/12/12 06:01:57;;;;;;;2.10;1.20;;;;;;;4.26;100.00;93627.16;5032382;28;20182;-60
2021/12/12 06:04:23;;;;;;;1.23;1.00;;;;;;;4.19;100.00;93622.72;5031642;28;20203;-59
2021/12/12 06:06:49;;;;;;;2.63;1.20;;;;;;;3.98;100.00;93624.38;5029606;28;20228;-62
2021/12/12 06:09:16;;;;;;;1.07;0.80;;;;;;;3.84;100.00;93601.97;5031884;28;20665;-59
2021/12/12 06:11:48;;;;;;;3.37;1.80;;;;;;;3.66;100.00;93610.88;5032348;28;20333;-63
2021/12/12 06:14:14;;;;;;;0.70;0.70;;;;;;;3.65;100.00;93607.59;5031732;28;20166;-62
2021/12/12 06:16:41;;;;;;;1.30;1.00;;;;;;;3.76;100.00;93629.38;5032163;28;20193;-65
2021/12/12 06:19:18;;;;;;;0.80;0.80;;;;;;;4.13;100.00;93661.69;5031918;28;20182;-63
2021/12/12 06:21:46;;;;;;;0.80;0.80;;;;;;;4.01;100.00;93634.16;5019924;22;20233;-64
2021/12/12 06:24:13;;;;;;;1.97;0.90;;;;;;;3.94;100.00;93658.19;5012228;28;20246;-61
2021/12/12 06:26:40;;;;;;;0.53;0.50;;;;;;;4.15;100.00;93651.53;5012448;28;20191;-63
2021/12/12 06:29:06;;;;;;;0.70;0.60;;;;;;;3.91;100.00;93665.94;5011882;28;20175;-66
2021/12/12 06:31:35;;;;;;;2.20;0.97;;;;;;;3.78;100.00;93670.28;5011039;28;20207;-63
2021/12/12 06:34:01;;;;;;;1.20;1.07;;;;;;;3.87;100.00;93677.94;5013828;28;20178;-61
2021/12/12 06:36:27;;;;;;;1.50;1.03;;;;;;;4.05;100.00;93678.28;5016046;28;20221;-63
2021/12/12 06:38:54;;;;;;;3.77;1.50;;;;;;;4.17;100.00;93689.94;5015945;28;20179;-62
2021/12/12 06:41:21;;;;;;;1.67;0.60;;;;;;;4.09;100.00;93687.19;5015809;28;20229;-63
2021/12/12 06:43:48;;;;;;;1.90;1.50;;;;;;;4.21;100.00;93696.31;5014698;28;20266;-63
2021/12/12 06:46:15;;;;;;;1.23;0.80;;;;;;;4.53;100.00;93727.38;5016266;28;20255;-63
2021/12/12 06:48:42;;;;;;;1.07;0.83;;;;;;;4.58;100.00;93732.88;5015893;28;20179;-63
2021/12/12 06:51:09;;;;;;;0.50;0.50;;;;;;;4.77;100.00;93735.56;5016883;28;20200;-61
2021/12/12 06:53:38;;;;;;;1.30;1.03;;;;;;;4.67;100.00;93729.63;5016166;28;20199;-60
2021/12/12 06:56:05;;;;;;;2.00;0.97;;;;;;;4.83;100.00;93735.09;5015550;28;20576;-61
2021/12/12 06:58:31;;;;;;;0.40;0.40;;;;;;;5.00;100.00;93758.97;5015457;28;20320;-61
2021/12/12 07:01:08;;;;;;;0.67;0.50;;;;;;;4.85;100.00;93738.28;5014971;28;20667;-61
2021/12/12 07:03:33;;;;;;;3.07;1.70;;;;;;;4.24;100.00;93736.34;5014272;28;20180;-60
2021/12/12 07:05:59;;;;;;;2.40;1.83;;;;;;;4.10;100.00;93721.50;5022813;23;20242;-61
2021/12/12 07:08:25;;;;;;;1.73;1.03;;;;;;;3.99;100.00;93734.03;5015896;28;20179;-62
2021/12/12 07:10:51;;;;;;;1.03;0.80;;;;;;;3.82;100.00;93740.31;5015786;28;20218;-61
2021/12/12 07:13:25;;;;;;;0.97;0.83;;;;;;;3.84;100.00;93753.56;5014231;28;20198;-63
2021/12/12 07:15:55;;;;;;;0.97;0.73;;;;;;;3.71;100.00;93752.06;5015482;28;20703;-63
2021/12/12 07:18:25;;;;;;;1.60;0.90;;;;;;;3.59;100.00;93748.72;5028715;22;20733;-60
2021/12/12 07:20:54;;;;;;;1.47;0.80;;;;;;;3.77;100.00;93770.00;5034685;28;20616;-63
2021/12/12 07:23:20;;;;;;;1.47;0.97;;;;;;;3.70;100.00;93766.34;5035182;28;20197;-60
2021/12/12 07:25:47;;;;;;;1.57;1.00;;;;;;;3.87;100.00;93778.47;5034630;28;20222;-64
2021/12/12 07:28:14;;;;;;;1.87;1.60;;;;;;;3.75;100.00;93793.66;5035119;28;20191;-64
2021/12/12 07:30:40;;;;;;;1.53;1.10;;;;;;;3.69;100.00;93777.31;5034504;28;20213;-63
2021/12/12 07:33:07;;;;;;;3.33;1.70;;;;;;;3.61;100.00;93796.34;5034874;28;20193;-63
2021/12/12 07:35:35;;;;;;;3.73;2.17;;;;;;;3.62;100.00;93821.34;5033023;28;20294;-64
2021/12/12 07:38:02;;;;;;;4.17;1.30;;;;;;;3.71;100.00;93830.78;5033816;28;20273;-60
2021/12/12 07:40:28;;;;;;;1.30;1.20;;;;;;;3.68;100.00;93812.56;5034472;28;20202;-63
2021/12/12 07:42:56;;;;;;;4.47;1.40;;;;;;;3.72;100.00;93819.78;5034504;28;20190;-63
2021/12/12 07:45:23;;;;;;;4.43;1.80;;;;;;;3.54;100.00;93832.84;5032166;28;20290;-61
2021/12/12 07:47:51;;;;;;;2.73;0.90;;;;;;;3.58;100.00;93841.78;5041872;22;20257;-62
2021/12/12 07:50:18;;;;;;;2.70;1.50;;;;;;;3.58;100.00;93850.13;5034028;28;20255;-63
2021/12/12 07:52:45;;;;;;;1.00;0.90;;;;;;;3.49;100.00;93838.22;5034564;28;20186;-63
2021/12/12 07:55:11;;;;;;;1.37;0.80;;;;;;;3.66;100.00;93859.63;5034345;28;20216;-63
2021/12/12 07:57:36;;;;;;;1.20;1.10;;;;;;;3.32;100.00;93862.00;5034993;28;20194;-60
2021/12/12 08:00:08;;;;;;;1.57;1.10;;;;;;;2.95;100.00;93857.13;5034113;28;20208;-64
2021/12/12 08:02:34;;;;;;;1.17;0.90;;;;;;;3.09;100.00;93860.25;5034692;28;20179;-64
2021/12/12 08:05:01;;;;;;;4.67;1.47;;;;;;;3.28;100.00;93864.81;5033979;28;20248;-63
2021/12/12 08:07:28;;;;;;;2.83;1.13;;;;;;;3.73;100.00;93866.66;5032918;28;20717;-64
2021/12/12 08:09:54;;;;;;;1.60;1.30;;;;;;;3.89;100.00;93873.88;5033856;28;20267;-61
2021/12/12 08:12:25;;;;;;;1.07;1.00;;;;;;;4.06;100.00;93874.25;5033898;28;20281;-64
2021/12/12 08:14:51;;;;;;;1.73;1.20;;;;;;;4.17;100.00;93878.53;5034045;28;20217;-63
2021/12/12 08:17:20;;;;;;;2.23;1.47;;;;;;;4.56;100.00;93878.16;5035136;28;20266;-64
2021/12/12 08:19:47;;;;;;;1.23;1.10;;;;;;;4.33;100.00;93899.13;5040927;22;20221;-62
2021/12/12 08:22:13;;;;;;;2.33;1.80;;;;;;;4.21;100.00;93890.78;5033722;28;20178;-63
2021/12/12 08:24:39;;;;;;;2.67;1.70;;;;;;;4.39;100.00;93893.66;5033753;28;20572;-61
2021/12/12 08:27:08;;;;;;;2.53;1.67;;;;;;;4.87;100.00;93912.69;5033985;28;20612;-63
2021/12/12 08:29:36;;;;;;;1.40;1.30;;;;;;;4.52;100.00;93912.00;5033294;28;20190;-60
2021/12/12 08:32:11;;;;;;;2.43;1.60;;;;;;;4.60;100.00;93907.19;5033462;28;20202;-61
2021/12/12 08:34:37;;;;;;;2.63;1.43;;;;;;;4.63;100.00;93918.72;5032465;28;20194;-59
2021/12/12 08:37:05;;;;;;;2.13;1.40;;;;;;;5.32;100.00;93895.84;5030315;28;20197;-60
2021/12/12 08:39:30;;;;;;;1.80;1.50;;;;;;;4.72;100.00;93944.06;5032837;28;20206;-62
2021/12/12 08:41:58;;;;;;;2.10;1.57;;;;;;;4.91;100.00;93915.78;5033337;28;20190;-64
2021/12/12 08:44:24;;;;;;;2.30;1.40;;;;;;;5.02;100.00;93951.84;5033428;28;20229;-61
2021/12/12 08:46:52;;;;;;;1.53;1.27;;;;;;;4.38;100.00;93937.34;5033328;28;20186;-60
2021/12/12 08:49:21;;;;;;;1.57;0.90;;;;;;;4.58;100.00;93934.19;5033264;28;20200;-64
2021/12/12 08:51:52;;;;;;;8.13;1.53;;;;;;;4.81;100.00;93938.31;5033134;28;20577;-60
2021/12/12 08:54:27;;;;;;;2.13;1.47;;;;;;;4.99;100.00;93947.03;5033203;28;20184;-63
2021/12/12 08:57:03;;;;;;;2.13;1.30;;;;;;;4.85;100.00;93964.88;5032065;28;20171;-64
2021/12/12 08:59:31;;;;;;;1.83;1.30;;;;;;;4.71;100.00;93987.75;5031587;28;20748;-65
2021/12/12 09:02:03;;;;;;;2.10;1.00;;;;;;;4.64;100.00;93945.53;5031604;28;20245;-64
2021/12/12 09:04:34;;;;;;;1.13;1.03;;;;;;;4.49;100.00;93967.56;5030791;28;20305;-64
2021/12/12 09:07:05;;;;;;;2.60;1.80;;;;;;;4.44;100.00;93973.84;5021563;22;20232;-60
2021/12/12 09:09:38;;;;;;;3.00;1.77;;;;;;;4.50;100.00;93984.28;5013071;28;20241;-60
2021/12/12 09:12:11;;;;;;;2.67;1.90;;;;;;;4.28;100.00;93959.06;5013181;28;20547;-63
2021/12/12 09:14:42;;;;;;;2.13;1.50;;;;;;;4.69;100.00;93963.59;5013046;28;20212;-64
2021/12/12 09:17:24;;;;;;;4.73;1.57;;;;;;;4.42;100.00;93979.00;5012875;28;20168;-63
2021/12/12 09:20:05;;;;;;;2.00;1.73;;;;;;;4.57;100.00;93954.41;5013062;28;20214;-65
2021/12/12 09:22:35;;;;;;;2.67;1.57;;;;;;;4.15;100.00;93985.97;5012963;28;20198;-61
2021/12/12 09:25:11;;;;;;;4.33;2.30;;;;;;;4.12;100.00;93958.53;5025034;22;20288;-61
2021/12/12 09:27:44;;;;;;;3.00;1.70;;;;;;;4.01;100.00;93969.34;5031565;28;20174;-60
2021/12/12 09:30:11;;;;;;;3.33;2.33;;;;;;;4.15;100.00;93963.34;5031291;28;20206;-64
2021/12/12 09:32:47;;;;;;;2.93;2.00;;;;;;;3.83;100.00;93964.81;5032376;28;20181;-65
2021/12/12 09:35:25;;;;;;;3.57;1.50;;;;;;;3.51;100.00;93963.72;5032496;28;20203;-63
2021/12/12 09:38:18;;;;;;;2.70;1.93;;;;;;;3.43;100.00;93969.28;5032289;28;20167;-62
2021/12/12 09:40:55;;;;;;;2.73;1.40;;;;;;;3.07;100.00;93979.28;5032627;28;20216;-64
2021/12/12 09:43:29;;;;;;;2.30;1.50;;;;;;;2.99;100.00;93976.47;5032407;28;20186;-60
2021/12/12 09:46:00;;;;;;;2.17;1.67;;;;;;;3.08;100.00;93976.66;5032507;28;20204;-63
2021/12/12 09:51:59;;;;;;;3.43;2.07;;;;;;;3.02;100.00;93972.06;5032034;28;20252;-61
2021/12/12 09:54:34;;;;;;;3.37;2.00;;;;;;;3.00;100.00;93986.41;5028803;28;20244;-63
2021/12/12 09:57:03;;;;;;;3.40;1.80;;;;;;;2.80;100.00;93984.41;5018004;23;20826;-63
2021/12/12 10:00:05;;;;;;;2.67;2.23;;;;;;;2.86;100.00;93988.22;5012672;28;20214;-63
2021/12/12 10:02:46;;;;;;;3.73;2.27;;;;;;;3.11;100.00;93978.94;5012583;28;21076;-62
2021/12/12 10:05:15;;;;;;;2.67;2.00;;;;;;;2.98;100.00;93983.19;5019299;23;20233;-64
2021/12/12 10:08:09;;;;;;;3.17;1.83;;;;;;;3.22;100.00;93978.25;5012073;28;20171;-61
2021/12/12 10:10:56;;;;;;;2.70;2.00;;;;;;;3.40;100.00;93990.38;5012265;28;20207;-63
2021/12/12 10:13:31;;;;;;;1.67;1.57;;;;;;;3.30;100.00;93998.63;5011513;28;20195;-63
2021/12/12 10:16:04;;;;;;;2.57;2.03;;;;;;;3.35;100.00;94004.16;5012168;28;20230;-64
2021/12/12 10:18:40;;;;;;;6.07;2.03;;;;;;;3.27;100.00;94018.94;5012404;28;20182;-61
2021/12/12 10:21:11;;;;;;;2.73;2.27;;;;;;;2.98;100.00;94015.81;5012737;28;20234;-62
2021/12/12 10:24:07;;;;;;;3.30;2.27;;;;;;;3.26;100.00;93995.53;5012126;28;20181;-64
2021/12/12 10:26:41;;;;;;;3.23;2.30;;;;;;;3.39;100.00;94010.56;5011897;28;20292;-62
2021/12/12 10:29:18;;;;;;;7.03;2.83;;;;;;;3.09;100.00;94025.16;5009798;28;20170;-60
2021/12/12 10:31:54;;;;;;;4.70;3.03;;;;;;;3.02;100.00;94013.91;5012205;28;20178;-63
2021/12/12 10:34:24;;;;;;;3.20;2.10;;;;;;;2.81;100.00;94023.63;5010651;28;20558;-60
2021/12/12 10:37:07;;;;;;;3.43;2.20;;;;;;;2.84;100.00;94025.16;5010644;28;20225;-63
2021/12/12 10:39:48;;;;;;;2.70;2.10;;;;;;;2.78;100.00;94033.09;5011742;28;20210;-63
2021/12/12 10:42:26;;;;;;;4.40;1.70;;;;;;;2.98;100.00;94033.41;5012326;28;20284;-64
2021/12/12 10:45:18;;;;;;;2.50;1.90;;;;;;;2.81;100.00;94031.16;5011964;28;20242;-60
2021/12/12 10:48:08;;;;;;;3.77;2.60;;;;;;;2.79;100.00;94043.00;5006342;28;20198;-60
2021/12/12 10:50:43;;;;;;;4.13;2.83;;;;;;;2.94;100.00;94042.03;5012129;28;20222;-62
2021/12/12 10:53:35;;;;;;;3.77;2.10;;;;;;;2.92;100.00;94033.00;5011927;28;20188;-61
2021/12/12 10:56:06;;;;;;;3.03;1.70;;;;;;;2.80;100.00;94036.28;5012156;28;20214;-61
2021/12/12 10:58:42;;;;;;;2.60;1.90;;;;;;;3.03;100.00;94043.94;5011584;28;20231;-63
2021/12/12 11:01:17;;;;;;;2.53;2.00;;;;;;;2.94;100.00;94047.06;5012087;28;20202;-63
2021/12/12 11:04:11;;;;;;;3.47;2.63;;;;;;;3.16;100.00;94048.94;5009534;28;20233;-64
2021/12/12 11:06:59;;;;;;;1.53;1.43;;;;;;;3.14;100.00;94049.06;5011740;28;20241;-64
2021/12/12 11:09:42;;;;;;;1.30;1.20;;;;;;;3.24;100.00;94040.00;5011059;28;20214;-65
2021/12/12 11:12:18;;;;;;;1.40;1.20;;;;;;;3.20;100.00;94048.66;5011511;28;20179;-65
2021/12/12 11:15:04;;;;;;;1.63;1.50;;;;;;;2.92;100.00;94055.56;5011662;28;20206;-65
2021/12/12 11:17:37;;;;;;;3.47;1.70;;;;;;;3.02;100.00;94044.03;4994725;28;20190;-61
2021/12/12 11:20:08;;;;;;;2.37;1.60;;;;;;;2.72;100.00;94041.81;5011884;28;20237;-62
2021/12/12 11:22:44;;;;;;;1.40;1.30;;;;;;;2.84;100.00;94043.53;5015161;28;20221;-62
2021/12/12 11:25:27;;;;;;;2.47;1.33;;;;;;;2.81;100.00;94051.25;5028828;22;20253;-60
2021/12/12 11:28:18;;;;;;;1.73;1.63;;;;;;;2.80;100.00;94051.34;5034757;28;20189;-61
2021/12/12 11:30:46;;;;;;;1.83;1.20;;;;;;;2.74;100.00;94045.03;5028120;28;20256;-61
2021/12/12 11:33:15;;;;;;;1.60;1.23;;;;;;;2.71;100.00;94049.44;5033908;28;20236;-60
2021/12/12 11:35:45;;;;;;;2.47;1.40;;;;;;;2.76;100.00;94040.72;5033765;28;20202;-60
2021/12/12 11:38:30;;;;;;;1.50;1.27;;;;;;;2.51;100.00;94038.97;5034476;28;20182;-61
2021/12/12 11:41:20;;;;;;;2.00;1.80;;;;;;;2.44;100.00;94044.47;5034781;28;20221;-61
2021/12/12 11:44:23;;;;;;;2.23;1.67;;;;;;;2.43;100.00;94037.84;5034284;28;20186;-63
2021/12/12 11:47:26;;;;;;;3.07;1.43;;;;;;;2.42;100.00;94038.75;5033146;28;20186;-62
2021/12/12 11:50:29;;;;;;;1.50;1.20;;;;;;;2.43;100.00;94050.38;5034387;28;20213;-63
2021/12/12 11:53:19;;;;;;;1.20;1.10;;;;;;;2.47;100.00;94044.25;5034439;28;20178;-64
2021/12/12 11:55:54;;;;;;;1.93;1.40;;;;;;;2.43;100.00;94055.38;5041735;22;20289;-63
2021/12/12 11:58:22;;;;;;;2.03;1.47;;;;;;;2.47;100.00;94054.28;5034301;28;20273;-66
2021/12/12 12:00:57;;;;;;;2.10;1.67;;;;;;;2.47;100.00;94060.13;5034285;28;20288;-64
2021/12/12 12:03:27;;;;;;;1.73;1.63;;;;;;;2.33;100.00;94059.38;5034380;28;20624;-64
2021/12/12 12:06:19;;;;;;;2.43;1.90;;;;;;;2.38;100.00;94057.41;5034377;28;20226;-64
2021/12/12 12:09:07;;;;;;;2.20;2.00;;;;;;;2.24;100.00;94058.22;5033599;28;20692;-65
2021/12/12 12:12:13;;;;;;;2.00;1.60;;;;;;;2.21;100.00;94045.91;5034517;28;20216;-63
2021/12/12 12:14:45;;;;;;;3.03;1.87;;;;;;;2.18;100.00;94071.16;5034142;28;20351;-63
2021/12/12 12:17:47;;;;;;;1.77;1.50;;;;;;;2.24;100.00;94075.78;5034472;28;20186;-63